Wednesday, September 20, 2017, 9:33 PM EDT

KRDG, Reading Regional Airport

Location: Reading, PA, United States Lat: 40.367
Local Time: 9:33 PM EDT ( 1:33 GMT) Lon: -75.967
Time Zone: US/Eastern Elev: 344 ft

Show me the last for .
Show Decoded

2017-09-20 20:54 METAR KRDG 210054Z 04003KT 10SM CLR 23/19 A2994 RMK AO2 SLP141 T02280189 $ =
2017-09-20 19:54 METAR KRDG 202354Z 01003KT 10SM CLR 24/19 A2993 RMK AO2 SLP139 T02390189 10306
                 20233 53008 $ =
2017-09-20 18:54 METAR KRDG 202254Z 34004KT 10SM FEW050 27/18 A2992 RMK AO2 SLP135 T02670183 $ =
2017-09-20 17:54 METAR KRDG 202154Z AUTO 34008KT 10SM CLR 28/18 A2992 RMK AO2 SLP133 T02830178 $
                 =
2017-09-20 16:54 METAR KRDG 202054Z 33010KT 10SM CLR 29/18 A2991 RMK AO2 SLP130 T02940178 55000 $
                 =
2017-09-20 15:54 METAR KRDG 201954Z 35012KT 10SM CLR 30/18 A2990 RMK AO2 SLP128 T03000178 $ =
2017-09-20 14:54 METAR KRDG 201854Z 01006KT 10SM FEW055 30/17 A2990 RMK AO2 SLP128 T03000172 $ =
2017-09-20 13:54 METAR KRDG 201754Z 33009KT 10SM FEW040 30/19 A2991 RMK AO2 SLP131 T03000189
                 10300 20206 58010 $ =
2017-09-20 12:54 METAR KRDG 201654Z 01006KT 10SM CLR 29/19 A2992 RMK AO2 SLP135 T02890189 $ =
2017-09-20 11:54 METAR KRDG 201554Z 33008KT 10SM CLR 27/19 A2994 RMK AO2 SLP139 T02720194 $ =
2017-09-20 10:54 METAR KRDG 201454Z 36010KT 10SM CLR 26/19 A2994 RMK AO2 SLP141 T02610189 58002 $
                 =
2017-09-20 09:54 METAR KRDG 201354Z 36007KT 10SM CLR 24/18 A2995 RMK AO2 SLP142 T02440183 =
2017-09-20 08:54 METAR KRDG 201254Z 35004KT 10SM BKN120 22/18 A2995 RMK AO2 SLP144 T02220178 =
2017-09-20 07:54 METAR KRDG 201154Z AUTO 36004KT 10SM OVC120 21/18 A2995 RMK AO2 SLP142 T02060178
                 10211 20183 53018 $ =
2017-09-20 06:54 METAR KRDG 201054Z AUTO 00000KT 10SM CLR 19/17 A2993 RMK AO2 SLP136 T01890172 $
                 =
2017-09-20 05:54 METAR KRDG 200954Z AUTO 00000KT 10SM CLR 19/17 A2991 RMK AO2 SLP130 T01940172 $
                 =
2017-09-20 04:54 METAR KRDG 200854Z AUTO 31007KT 10SM CLR 21/17 A2989 RMK AO2 SLP125 T02110172
                 55004 $ =
2017-09-20 03:54 METAR KRDG 200754Z AUTO 01005KT 10SM FEW080 BKN110 21/18 A2988 RMK AO2 SLP122
                 T02110178 $ =
2017-09-20 02:54 METAR KRDG 200654Z AUTO 00000KT 10SM FEW060 BKN085 21/18 A2991 RMK AO2 SLP129
                 T02060183 $ =
2017-09-20 01:54 METAR KRDG 200554Z AUTO 36005KT 10SM FEW050 BKN075 21/18 A2991 RMK AO2 SLP129
                 60000 T02060183 10250 20206 56007 $ =
2017-09-20 00:54 METAR KRDG 200454Z AUTO 35006KT 10SM OVC090 22/19 A2991 RMK AO2 RAB35E48 SLP129
                 P0000 T02170189 402780183 $ =
2017-09-19 23:54 METAR KRDG 200354Z AUTO 03006KT 10SM BKN090 22/19 A2991 RMK AO2 RAB18E48 SLP130
                 P0000 T02220189 $ =
2017-09-19 22:54 METAR KRDG 200254Z AUTO 35004KT 10SM FEW090 23/18 A2993 RMK AO2 SLP136 T02280178
                 50009 $ =
2017-09-19 21:54 METAR KRDG 200154Z AUTO 04004KT 10SM SCT070 24/17 A2993 RMK AO2 SLP136 T02390172
                 $ =

Support USWX by starting your Amazon purchase here.